TimeEDT,TemperatureF,Dew PointF,Humidity,Sea Level PressureIn,VisibilityMPH,Wind Direction,Wind SpeedMPH,Gust SpeedMPH,PrecipitationIn,Events,Conditions,WindDirDegrees,DateUTC
12:00 AM,45.9,44.6,95,-9999,-9999.0,West,3.5,-,N/A,,Unknown,260,2012-10-21 04:00:00
1:00 AM,45.9,44.6,95,-9999,-9999.0,West,2.3,-,N/A,,Unknown,260,2012-10-21 05:00:00
2:00 AM,45,44,96,,,WSW,2.3,,,,,250,2012-10-21 06:00:00
2:00 AM,45.1,44.2,97,-9999,-9999.0,WSW,2.3,-,N/A,,Unknown,250,2012-10-21 06:00:00
3:00 AM,43.9,43.2,97,-9999,-9999.0,SW,1.2,-,N/A,,Unknown,230,2012-10-21 07:00:00
4:00 AM,45.0,44.2,97,-9999,-9999.0,WSW,1.2,-,N/A,,Unknown,240,2012-10-21 08:00:00
5:00 AM,43.3,42.4,97,-9999,-9999.0,SW,2.3,-,N/A,,Unknown,230,2012-10-21 09:00:00
6:00 AM,43.0,42.6,99,-9999,-9999.0,SW,3.5,-,N/A,,Unknown,230,2012-10-21 10:00:00
7:00 AM,45.3,44.6,97,-9999,-9999.0,West,4.6,-,N/A,,Unknown,260,2012-10-21 11:00:00
8:00 AM,45,44,95,,,WSW,2.3,,,,,250,2012-10-21 12:00:00
8:00 AM,44.6,44.1,98,-9999,-9999.0,WSW,2.3,-,N/A,,Unknown,250,2012-10-21 12:00:00
9:00 AM,47.8,46.2,94,-9999,-9999.0,WSW,4.6,-,N/A,,Unknown,250,2012-10-21 13:00:00
10:00 AM,51.4,46.9,85,-9999,-9999.0,West,5.8,-,N/A,,Unknown,260,2012-10-21 14:00:00
11:00 AM,54.7,48.0,78,-9999,-9999.0,West,4.6,-,N/A,,Unknown,260,2012-10-21 15:00:00
12:00 PM,58.1,47.5,68,-9999,-9999.0,West,5.8,-,N/A,,Unknown,260,2012-10-21 16:00:00
1:00 PM,58.8,45.5,61,-9999,-9999.0,West,8.1,-,N/A,,Unknown,260,2012-10-21 17:00:00
2:00 PM,59,44,47,,,West,8.1,,,,,270,2012-10-21 18:00:00
2:00 PM,59.4,44.2,57,-9999,-9999.0,West,8.1,-,N/A,,Unknown,270,2012-10-21 18:00:00
3:00 PM,62.1,43.9,51,-9999,-9999.0,West,6.9,18.4,N/A,,Unknown,260,2012-10-21 19:00:00
4:00 PM,60.3,41.9,51,-9999,-9999.0,West,8.1,-,N/A,,Unknown,260,2012-10-21 20:00:00
5:00 PM,60.1,41.4,50,-9999,-9999.0,West,9.2,-,N/A,,Unknown,270,2012-10-21 21:00:00
6:00 PM,57.2,41.9,57,-9999,-9999.0,West,6.9,-,N/A,,Unknown,270,2012-10-21 22:00:00
7:00 PM,53.8,42.8,66,-9999,-9999.0,WNW,2.3,-,N/A,,Unknown,300,2012-10-21 23:00:00
8:00 PM,49,42,69,,,WNW,1.2,,,,,300,2012-10-22 00:00:00
8:00 PM,49.5,42.1,76,-9999,-9999.0,WNW,1.2,-,N/A,,Unknown,300,2012-10-22 00:00:00
9:00 PM,45.1,41.5,87,-9999,-9999.0,West,1.2,-,N/A,,Unknown,260,2012-10-22 01:00:00
10:00 PM,44.2,41.0,88,-9999,-9999.0,West,1.2,-,N/A,,Unknown,280,2012-10-22 02:00:00
11:00 PM,42.3,40.5,93,-9999,-9999.0,WNW,1.2,-,N/A,,Unknown,300,2012-10-22 03:00:00